Time;durP1;ratioP1;P1;durP2;ratioP2;P2;SDS_P1;SDS_P2;PMS_P1;PMS_P2;Temp;Humidity;BMP_temperature;BMP_pressure;BME280_temperature;BME280_humidity;BME280_pressure;Samples;Min_cycle;Max_cycle;Signal;HPM_P1;HPM_P2
2023/09/26 00:00:13;;;;;;;30.80;28.77;;;;;;;;;;5010195;28;20022;-59
2023/09/26 00:02:39;;;;;;;25.23;23.33;;;;;;;;;;5008119;28;20029;-59
2023/09/26 00:05:06;;;;;;;17.93;16.43;;;;;;;;;;5011352;28;20014;-59
2023/09/26 00:07:31;;;;;;;14.73;13.43;;;;;;;;;;5007292;28;20034;-57
2023/09/26 00:09:56;;;;;;;23.27;21.58;;;;;;;;;;5010095;28;20401;-59
2023/09/26 00:12:21;;;;;;;23.83;21.93;;;;;;;;;;5010263;28;20072;-57
2023/09/26 00:14:46;;;;;;;18.53;17.07;;;;;;;;;;5010757;28;20029;-58
2023/09/26 00:17:11;;;;;;;18.83;17.37;;;;;;;;;;5009516;28;20033;-56
2023/09/26 00:19:38;;;;;;;23.85;22.13;;;;;;;;;;5010891;28;20125;-57
2023/09/26 00:22:03;;;;;;;36.57;34.13;;;;;;;;;;5010700;28;20117;-60
2023/09/26 00:24:28;;;;;;;24.47;22.67;;;;;;;;;;5010502;28;20037;-59
2023/09/26 00:26:53;;;;;;;30.95;28.77;;;;;;;;;;5008658;28;20029;-59
2023/09/26 00:29:18;;;;;;;62.43;58.03;;;;;;;;;;5008992;28;20046;-59
2023/09/26 00:31:44;;;;;;;17.63;16.20;;;;;;;;;;5010175;28;20061;-59
2023/09/26 00:34:10;;;;;;;47.08;43.95;;;;;;;;;;5006809;28;20044;-59
2023/09/26 00:36:35;;;;;;;24.20;22.30;;;;;;;;;;5007703;28;20397;-62
2023/09/26 00:39:00;;;;;;;45.42;42.47;;;;;;;;;;5005320;28;20026;-61
2023/09/26 00:41:25;;;;;;;35.27;32.90;;;;;;;;;;5007920;28;20029;-59
2023/09/26 00:43:51;;;;;;;19.73;18.20;;;;;;;;;;5009867;28;20032;-58
2023/09/26 00:46:17;;;;;;;18.55;17.15;;;;;;;;;;5009491;28;20362;-58
2023/09/26 00:48:42;;;;;;;18.38;16.85;;;;;;;;;;5009450;28;20398;-58
2023/09/26 00:51:07;;;;;;;38.80;36.20;;;;;;;;;;5009005;28;20026;-58
2023/09/26 00:53:33;;;;;;;20.45;18.90;;;;;;;;;;5010542;28;20022;-59
2023/09/26 00:55:59;;;;;;;21.17;19.48;;;;;;;;;;5009343;28;20030;-58
2023/09/26 00:58:25;;;;;;;19.07;17.43;;;;;;;;;;5006792;28;20029;-58
2023/09/26 01:00:50;;;;;;;21.92;20.13;;;;;;;;;;5007225;28;20448;-58
2023/09/26 01:03:16;;;;;;;25.27;23.42;;;;;;;;;;5010173;28;20386;-58
2023/09/26 01:05:41;;;;;;;22.73;20.97;;;;;;;;;;5012286;28;20026;-57
2023/09/26 01:08:07;;;;;;;42.07;39.10;;;;;;;;;;5011712;28;20503;-60
2023/09/26 01:10:33;;;;;;;21.58;19.95;;;;;;;;;;5013008;28;20093;-56
2023/09/26 01:12:58;;;;;;;17.95;16.60;;;;;;;;;;5023021;28;20006;-60
2023/09/26 01:15:30;;;;;;;25.30;23.37;;;;;;;;;;5025399;28;20548;-59
2023/09/26 01:17:55;;;;;;;47.10;44.10;;;;;;;;;;5011215;28;20029;-59
2023/09/26 01:20:22;;;;;;;19.80;18.27;;;;;;;;;;5003539;28;20473;-58
2023/09/26 01:22:48;;;;;;;42.28;39.40;;;;;;;;;;5003190;28;20034;-57
2023/09/26 01:25:16;;;;;;;18.63;16.98;;;;;;;;;;5011364;28;20048;-57
2023/09/26 01:27:41;;;;;;;20.98;19.20;;;;;;;;;;5008112;28;20505;-57
2023/09/26 01:30:08;;;;;;;45.63;42.23;;;;;;;;;;4999468;28;20113;-59
2023/09/26 01:32:33;;;;;;;36.45;34.08;;;;;;;;;;5004210;28;20068;-59
2023/09/26 01:34:58;;;;;;;43.53;40.63;;;;;;;;;;5008186;28;20026;-58
2023/09/26 01:37:23;;;;;;;25.05;22.83;;;;;;;;;;4997736;28;20022;-57
2023/09/26 01:39:49;;;;;;;30.10;27.95;;;;;;;;;;5008592;28;20034;-58
2023/09/26 01:42:14;;;;;;;23.70;21.88;;;;;;;;;;5009300;28;20049;-61
2023/09/26 01:44:39;;;;;;;18.75;17.20;;;;;;;;;;5010687;28;20018;-58
2023/09/26 01:47:04;;;;;;;46.38;43.38;;;;;;;;;;5010247;28;20084;-59
2023/09/26 01:49:30;;;;;;;16.45;15.13;;;;;;;;;;5008840;28;20053;-59
2023/09/26 01:51:55;;;;;;;16.40;15.13;;;;;;;;;;5007584;28;20041;-59
2023/09/26 01:54:20;;;;;;;18.50;17.03;;;;;;;;;;5010933;28;20022;-57
2023/09/26 01:56:45;;;;;;;25.43;23.73;;;;;;;;;;5009088;28;20159;-59
2023/09/26 01:59:10;;;;;;;27.13;25.10;;;;;;;;;;5008525;28;20096;-59
2023/09/26 02:01:35;;;;;;;26.43;24.43;;;;;;;;;;5003384;28;20037;-59
2023/09/26 02:04:01;;;;;;;22.55;20.92;;;;;;;;;;5008477;28;20037;-59
2023/09/26 02:06:26;;;;;;;21.52;19.75;;;;;;;;;;5003403;28;20601;-58
2023/09/26 02:08:51;;;;;;;15.48;14.07;;;;;;;;;;5007970;28;20041;-57
2023/09/26 02:11:16;;;;;;;20.08;18.45;;;;;;;;;;5009875;28;20034;-59
2023/09/26 02:13:41;;;;;;;23.07;21.20;;;;;;;;;;5010458;28;20434;-58
2023/09/26 02:16:12;;;;;;;22.20;20.53;;;;;;;;;;5004679;28;20033;-58
2023/09/26 02:18:38;;;;;;;22.85;21.05;;;;;;;;;;5010486;28;20047;-57
2023/09/26 02:21:03;;;;;;;34.53;32.22;;;;;;;;;;5008831;28;20030;-58
2023/09/26 02:23:28;;;;;;;23.48;21.40;;;;;;;;;;5010359;28;20034;-57
2023/09/26 02:25:53;;;;;;;35.33;32.85;;;;;;;;;;5010484;28;20088;-58
2023/09/26 02:28:19;;;;;;;33.90;31.33;;;;;;;;;;5003165;28;20398;-58
2023/09/26 02:30:45;;;;;;;19.35;17.65;;;;;;;;;;5009747;28;20501;-58
2023/09/26 02:33:10;;;;;;;18.33;16.90;;;;;;;;;;5009494;28;20110;-59
2023/09/26 02:35:35;;;;;;;21.17;19.43;;;;;;;;;;5010287;28;20104;-58
2023/09/26 02:38:00;;;;;;;35.13;32.73;;;;;;;;;;5002662;28;20025;-59
2023/09/26 02:40:25;;;;;;;20.90;19.10;;;;;;;;;;5007653;28;20025;-59
2023/09/26 02:42:51;;;;;;;17.27;15.87;;;;;;;;;;5010293;28;20028;-60
2023/09/26 02:45:16;;;;;;;25.40;23.40;;;;;;;;;;5010280;28;20506;-59
2023/09/26 02:47:42;;;;;;;26.93;24.97;;;;;;;;;;5009109;28;20026;-60
2023/09/26 02:50:07;;;;;;;36.28;33.80;;;;;;;;;;5020263;28;20476;-59
2023/09/26 02:52:33;;;;;;;48.58;45.20;;;;;;;;;;5009102;28;20034;-59
2023/09/26 02:54:58;;;;;;;24.33;22.50;;;;;;;;;;5007177;28;20034;-59
2023/09/26 02:57:23;;;;;;;28.43;26.40;;;;;;;;;;5009714;28;20037;-59
2023/09/26 02:59:48;;;;;;;71.57;66.83;;;;;;;;;;4997743;28;20445;-60
2023/09/26 03:02:14;;;;;;;17.90;16.40;;;;;;;;;;5016137;28;20396;-59
2023/09/26 03:04:39;;;;;;;18.85;17.38;;;;;;;;;;5019154;28;20486;-59
2023/09/26 03:07:04;;;;;;;19.08;17.52;;;;;;;;;;5009588;28;20021;-59
2023/09/26 03:09:33;;;;;;;28.60;26.47;;;;;;;;;;5007746;28;20097;-57
2023/09/26 03:11:58;;;;;;;23.10;21.13;;;;;;;;;;5009911;28;20029;-60
2023/09/26 03:14:23;;;;;;;25.13;23.23;;;;;;;;;;5012071;28;20025;-58
2023/09/26 03:16:49;;;;;;;42.85;40.03;;;;;;;;;;5009120;28;20056;-61
2023/09/26 03:19:16;;;;;;;21.20;19.58;;;;;;;;;;5011155;28;20117;-59
2023/09/26 03:21:42;;;;;;;70.20;65.63;;;;;;;;;;5005537;28;20038;-59
2023/09/26 03:24:07;;;;;;;27.17;25.13;;;;;;;;;;5011408;28;20018;-59
2023/09/26 03:26:32;;;;;;;25.57;23.77;;;;;;;;;;5010754;28;20034;-59
2023/09/26 03:28:57;;;;;;;27.92;25.92;;;;;;;;;;5011521;28;20030;-59
2023/09/26 03:31:22;;;;;;;17.45;15.95;;;;;;;;;;5009116;28;20034;-59
2023/09/26 03:33:48;;;;;;;20.23;18.67;;;;;;;;;;5009819;28;20486;-59
2023/09/26 03:36:13;;;;;;;18.05;16.60;;;;;;;;;;5010611;28;20027;-58
2023/09/26 03:38:38;;;;;;;29.00;26.83;;;;;;;;;;5011783;28;20022;-58
2023/09/26 03:41:04;;;;;;;28.07;26.03;;;;;;;;;;5016221;28;20119;-60
2023/09/26 03:43:30;;;;;;;32.70;30.55;;;;;;;;;;5017077;28;20030;-58
2023/09/26 03:46:03;;;;;;;32.30;30.13;;;;;;;;;;5015702;28;20477;-60
2023/09/26 03:48:29;;;;;;;24.92;23.20;;;;;;;;;;5013064;28;20088;-60
2023/09/26 03:50:54;;;;;;;30.20;28.20;;;;;;;;;;5012599;28;20105;-60
2023/09/26 03:53:20;;;;;;;37.33;34.73;;;;;;;;;;5012937;28;20532;-60
2023/09/26 03:55:52;;;;;;;28.80;26.60;;;;;;;;;;5011263;28;20033;-60
2023/09/26 03:58:17;;;;;;;32.63;30.25;;;;;;;;;;5012782;28;20084;-60
2023/09/26 04:00:42;;;;;;;23.02;21.15;;;;;;;;;;5011461;28;20025;-59
2023/09/26 04:03:08;;;;;;;22.80;21.00;;;;;;;;;;5012161;28;20029;-59
2023/09/26 04:05:33;;;;;;;23.98;22.13;;;;;;;;;;5009251;28;20022;-60
2023/09/26 04:07:58;;;;;;;44.57;41.63;;;;;;;;;;5007383;28;20037;-59
2023/09/26 04:10:23;;;;;;;40.15;37.38;;;;;;;;;;5011204;28;20026;-59
2023/09/26 04:12:49;;;;;;;33.60;31.30;;;;;;;;;;5009511;28;20036;-59
2023/09/26 04:15:15;;;;;;;28.40;26.20;;;;;;;;;;5010813;28;20029;-60
2023/09/26 04:17:40;;;;;;;42.78;39.95;;;;;;;;;;5012009;28;20156;-59
2023/09/26 04:20:12;;;;;;;28.23;26.17;;;;;;;;;;5011319;28;20547;-60
2023/09/26 04:22:37;;;;;;;33.20;30.77;;;;;;;;;;5008082;28;20022;-58
2023/09/26 04:25:02;;;;;;;44.30;41.33;;;;;;;;;;5007184;28;20093;-59
2023/09/26 04:27:28;;;;;;;35.90;33.47;;;;;;;;;;5008941;28;20109;-59
2023/09/26 04:29:53;;;;;;;23.35;21.65;;;;;;;;;;5009533;28;20459;-60
2023/09/26 04:32:18;;;;;;;75.63;70.53;;;;;;;;;;5010933;28;20026;-58
2023/09/26 04:34:44;;;;;;;35.47;33.03;;;;;;;;;;4996193;28;20504;-59
2023/09/26 04:37:09;;;;;;;27.67;25.60;;;;;;;;;;4995866;28;20578;-57
2023/09/26 04:39:34;;;;;;;33.77;31.37;;;;;;;;;;5003220;28;20482;-59
2023/09/26 04:41:59;;;;;;;35.10;32.55;;;;;;;;;;5004791;28;20022;-58
2023/09/26 04:44:24;;;;;;;27.20;25.10;;;;;;;;;;5016964;28;20552;-57
2023/09/26 04:46:49;;;;;;;32.40;29.85;;;;;;;;;;5014354;28;20052;-58
2023/09/26 04:49:15;;;;;;;31.90;29.57;;;;;;;;;;5010841;28;20038;-60
2023/09/26 04:51:40;;;;;;;45.23;42.00;;;;;;;;;;5003833;28;20026;-60
2023/09/26 04:54:05;;;;;;;36.93;34.30;;;;;;;;;;5008244;28;20021;-59
2023/09/26 04:56:31;;;;;;;21.23;19.52;;;;;;;;;;5008484;28;20014;-58
2023/09/26 04:58:56;;;;;;;33.08;30.45;;;;;;;;;;5008416;28;20037;-60
2023/09/26 05:01:25;;;;;;;26.47;24.43;;;;;;;;;;5003599;28;20058;-58
2023/09/26 05:03:51;;;;;;;39.17;36.08;;;;;;;;;;4996703;28;20058;-61
2023/09/26 05:06:17;;;;;;;29.55;27.30;;;;;;;;;;5004665;28;20079;-56
2023/09/26 05:08:42;;;;;;;22.65;20.92;;;;;;;;;;5009945;28;20052;-57
2023/09/26 05:11:14;;;;;;;28.08;25.85;;;;;;;;;;5024143;28;20030;-59
2023/09/26 05:13:39;;;;;;;33.70;31.02;;;;;;;;;;5007210;28;20641;-57
2023/09/26 05:16:07;;;;;;;24.00;22.10;;;;;;;;;;5021076;28;20064;-60
2023/09/26 05:18:32;;;;;;;35.50;32.95;;;;;;;;;;5010756;28;20029;-60
2023/09/26 05:20:59;;;;;;;26.27;24.20;;;;;;;;;;5014364;28;20010;-58
2023/09/26 05:23:24;;;;;;;20.88;19.08;;;;;;;;;;5024505;28;20480;-61
2023/09/26 05:25:49;;;;;;;65.37;61.07;;;;;;;;;;5031167;28;20017;-58
2023/09/26 05:28:14;;;;;;;69.07;64.28;;;;;;;;;;5028993;28;20040;-59
2023/09/26 05:30:41;;;;;;;34.63;31.83;;;;;;;;;;5018894;28;20025;-59
2023/09/26 05:33:08;;;;;;;21.73;19.73;;;;;;;;;;5029290;28;20021;-58
2023/09/26 05:35:33;;;;;;;28.60;26.20;;;;;;;;;;5022716;28;20421;-58
2023/09/26 05:37:58;;;;;;;25.60;23.37;;;;;;;;;;5020988;28;20087;-60
2023/09/26 05:40:24;;;;;;;32.47;29.77;;;;;;;;;;5030756;28;20448;-60
2023/09/26 05:42:49;;;;;;;51.42;47.45;;;;;;;;;;5027015;28;20118;-59
2023/09/26 05:45:16;;;;;;;25.67;23.53;;;;;;;;;;5005943;28;20558;-59
2023/09/26 05:47:42;;;;;;;20.33;18.20;;;;;;;;;;5027070;28;20036;-59
2023/09/26 05:50:07;;;;;;;41.13;38.13;;;;;;;;;;5018760;28;20018;-59
2023/09/26 05:52:32;;;;;;;26.77;24.58;;;;;;;;;;5018223;28;20481;-59
2023/09/26 05:54:57;;;;;;;44.77;41.53;;;;;;;;;;5028938;28;20037;-57
2023/09/26 05:57:23;;;;;;;26.23;24.13;;;;;;;;;;5020112;28;20022;-57
2023/09/26 05:59:48;;;;;;;23.30;21.30;;;;;;;;;;5017483;28;20079;-57
2023/09/26 06:02:14;;;;;;;31.30;28.87;;;;;;;;;;5017705;28;20109;-58
2023/09/26 06:04:39;;;;;;;;;;;;;;;;;;5003764;28;20101;-59
2023/09/26 06:07:05;;;;;;;28.77;26.33;;;;;;;;;;5021453;28;20050;-59
2023/09/26 06:09:30;;;;;;;20.00;18.08;;;;;;;;;;5030806;28;20025;-57
2023/09/26 06:11:55;;;;;;;22.35;20.40;;;;;;;;;;5011761;28;20022;-57
2023/09/26 06:14:21;;;;;;;34.72;32.05;;;;;;;;;;5013271;28;20517;-59
2023/09/26 06:16:46;;;;;;;35.80;32.78;;;;;;;;;;5016308;28;20088;-59
2023/09/26 06:19:11;;;;;;;20.10;18.10;;;;;;;;;;5014756;28;20038;-58
2023/09/26 06:21:36;;;;;;;20.70;18.70;;;;;;;;;;5018035;28;20078;-59
2023/09/26 06:24:04;;;;;;;28.23;25.90;;;;;;;;;;5002792;28;20054;-58
2023/09/26 06:26:30;;;;;;;24.00;21.83;;;;;;;;;;5021957;28;20021;-58
2023/09/26 06:28:55;;;;;;;30.48;27.85;;;;;;;;;;5008637;28;20026;-57
2023/09/26 06:31:20;;;;;;;57.67;53.45;;;;;;;;;;5006991;28;20370;-58
2023/09/26 06:33:45;;;;;;;49.27;45.20;;;;;;;;;;5011163;28;20105;-58
2023/09/26 06:36:15;;;;;;;29.67;27.00;;;;;;;;;;5016157;28;20055;-58
2023/09/26 06:38:40;;;;;;;29.90;26.83;;;;;;;;;;5022360;28;20022;-59
2023/09/26 06:41:06;;;;;;;38.07;34.93;;;;;;;;;;5012009;28;20018;-58
2023/09/26 06:43:32;;;;;;;34.60;31.50;;;;;;;;;;5013955;28;20905;-58
2023/09/26 06:45:57;;;;;;;39.78;36.35;;;;;;;;;;5013085;28;20108;-58
2023/09/26 06:48:23;;;;;;;25.40;23.10;;;;;;;;;;5014231;28;20157;-58
2023/09/26 06:50:48;;;;;;;44.85;40.90;;;;;;;;;;5020086;28;20033;-58
2023/09/26 06:53:13;;;;;;;25.67;23.07;;;;;;;;;;5024517;28;20470;-59
2023/09/26 06:55:39;;;;;;;65.73;60.50;;;;;;;;;;5013706;28;20433;-58
2023/09/26 06:58:07;;;;;;;38.38;35.53;;;;;;;;;;5014203;28;20075;-58
2023/09/26 07:00:34;;;;;;;28.30;25.80;;;;;;;;;;5011471;28;20018;-57
2023/09/26 07:02:59;;;;;;;41.20;38.00;;;;;;;;;;5018907;28;20025;-58
2023/09/26 07:05:27;;;;;;;27.23;24.93;;;;;;;;;;5013006;28;20037;-58
2023/09/26 07:07:53;;;;;;;50.75;46.88;;;;;;;;;;5014253;28;20018;-58
2023/09/26 07:10:18;;;;;;;59.17;54.55;;;;;;;;;;5013300;28;20022;-59
2023/09/26 07:12:44;;;;;;;134.00;121.53;;;;;;;;;;5013886;28;20033;-59
2023/09/26 07:15:11;;;;;;;101.63;93.57;;;;;;;;;;5012520;28;20477;-58
2023/09/26 07:17:36;;;;;;;54.60;50.65;;;;;;;;;;5021890;28;20030;-59
2023/09/26 07:20:02;;;;;;;97.65;89.90;;;;;;;;;;5023671;28;20033;-59
2023/09/26 07:22:27;;;;;;;100.13;92.18;;;;;;;;;;5012868;28;20784;-59
2023/09/26 07:24:52;;;;;;;71.20;66.25;;;;;;;;;;5014024;28;20018;-58
2023/09/26 07:27:17;;;;;;;68.87;63.83;;;;;;;;;;5014330;28;20026;-58
2023/09/26 07:29:46;;;;;;;29.97;27.37;;;;;;;;;;5006316;28;20018;-59
2023/09/26 07:32:11;;;;;;;72.82;67.90;;;;;;;;;;5012018;28;20085;-60
2023/09/26 07:34:36;;;;;;;70.67;65.53;;;;;;;;;;5014009;28;20026;-59
2023/09/26 07:37:01;;;;;;;78.40;72.43;;;;;;;;;;5017287;28;20045;-58
2023/09/26 07:39:27;;;;;;;75.18;69.43;;;;;;;;;;5025448;28;20028;-60
2023/09/26 07:41:52;;;;;;;135.93;125.00;;;;;;;;;;5022125;28;20192;-59
2023/09/26 07:44:17;;;;;;;85.07;78.37;;;;;;;;;;5010054;28;20017;-59
2023/09/26 07:46:43;;;;;;;67.32;62.15;;;;;;;;;;5021198;28;20080;-58
2023/09/26 07:49:08;;;;;;;48.92;45.38;;;;;;;;;;5012632;28;20038;-58
2023/09/26 07:51:33;;;;;;;47.65;44.28;;;;;;;;;;5018132;28;20504;-59
2023/09/26 07:53:58;;;;;;;67.30;62.42;;;;;;;;;;5015539;28;20026;-59
2023/09/26 07:56:23;;;;;;;83.85;77.75;;;;;;;;;;5008896;28;20037;-58
2023/09/26 07:58:49;;;;;;;179.63;155.80;;;;;;;;;;5017364;28;20450;-59
2023/09/26 08:01:14;;;;;;;117.10;108.28;;;;;;;;;;5011055;28;20061;-57
2023/09/26 08:03:39;;;;;;;84.43;77.73;;;;;;;;;;5012867;28;20502;-58
2023/09/26 08:06:05;;;;;;;117.77;108.43;;;;;;;;;;5012781;28;20029;-59
2023/09/26 08:08:31;;;;;;;130.57;119.85;;;;;;;;;;5018655;28;20014;-57
2023/09/26 08:10:56;;;;;;;145.85;135.40;;;;;;;;;;5025133;28;20030;-57
2023/09/26 08:13:22;;;;;;;110.82;99.50;;;;;;;;;;5013021;28;20018;-60
2023/09/26 08:15:47;;;;;;;156.83;141.60;;;;;;;;;;5012381;28;20022;-58
2023/09/26 08:18:12;;;;;;;215.17;198.03;;;;;;;;;;5012199;28;20447;-59
2023/09/26 08:20:37;;;;;;;155.23;143.77;;;;;;;;;;5011182;28;20024;-59
2023/09/26 08:23:02;;;;;;;222.77;206.13;;;;;;;;;;5020871;28;20087;-59
2023/09/26 08:25:28;;;;;;;137.00;126.80;;;;;;;;;;5027076;28;20025;-61
2023/09/26 08:27:53;;;;;;;66.30;61.70;;;;;;;;;;5032833;28;20029;-59
2023/09/26 08:30:18;;;;;;;175.93;160.03;;;;;;;;;;5012640;28;20034;-59
2023/09/26 08:32:43;;;;;;;174.53;160.17;;;;;;;;;;5012546;28;20060;-59
2023/09/26 08:35:09;;;;;;;176.47;163.83;;;;;;;;;;5010805;28;20084;-60
2023/09/26 08:37:35;;;;;;;126.78;117.47;;;;;;;;;;5012996;28;20036;-58
2023/09/26 08:40:03;;;;;;;211.63;190.52;;;;;;;;;;5023779;28;20477;-60
2023/09/26 08:42:28;;;;;;;207.52;188.30;;;;;;;;;;5032576;28;20132;-58
2023/09/26 08:44:54;;;;;;;103.68;95.45;;;;;;;;;;5032697;28;20056;-59
2023/09/26 08:47:24;;;;;;;223.32;203.15;;;;;;;;;;5032546;28;20029;-60
2023/09/26 08:49:51;;;;;;;291.95;255.38;;;;;;;;;;5025429;28;20045;-58
2023/09/26 08:52:16;;;;;;;218.82;202.05;;;;;;;;;;5024037;28;20009;-58
2023/09/26 08:54:41;;;;;;;197.40;180.23;;;;;;;;;;5031884;28;20033;-58
2023/09/26 08:57:07;;;;;;;207.07;191.37;;;;;;;;;;5031954;28;20022;-59
2023/09/26 08:59:32;;;;;;;181.82;165.23;;;;;;;;;;5031307;28;20013;-58
2023/09/26 09:01:57;;;;;;;170.10;158.32;;;;;;;;;;5031991;28;20112;-57
2023/09/26 09:04:23;;;;;;;104.77;97.63;;;;;;;;;;5023555;28;20021;-59
2023/09/26 09:06:59;;;;;;;258.50;236.10;;;;;;;;;;5022858;28;20017;-58
2023/09/26 09:09:24;;;;;;;124.45;114.40;;;;;;;;;;5031222;28;20044;-59
2023/09/26 09:11:49;;;;;;;140.47;130.60;;;;;;;;;;5031218;28;20044;-58
2023/09/26 09:14:29;;;;;;;96.53;88.93;;;;;;;;;;5031246;28;20080;-59
2023/09/26 09:16:55;;;;;;;207.85;192.30;;;;;;;;;;5027712;28;20112;-59
2023/09/26 09:19:21;;;;;;;185.63;172.23;;;;;;;;;;5014910;28;20029;-59
2023/09/26 09:21:46;;;;;;;270.37;243.90;;;;;;;;;;5023137;28;20028;-58
2023/09/26 09:24:12;;;;;;;237.37;217.17;;;;;;;;;;5031228;28;20025;-58
2023/09/26 09:26:37;;;;;;;207.40;186.32;;;;;;;;;;5025037;28;20017;-58
2023/09/26 09:29:19;;;;;;;206.88;190.57;;;;;;;;;;5022418;28;20026;-58
2023/09/26 09:31:44;;;;;;;133.38;124.32;;;;;;;;;;5019348;28;20037;-58
2023/09/26 09:34:09;;;;;;;184.87;170.07;;;;;;;;;;5022489;28;20029;-58
2023/09/26 09:36:37;;;;;;;118.20;110.95;;;;;;;;;;5030906;28;20051;-58
2023/09/26 09:39:02;;;;;;;218.32;200.57;;;;;;;;;;5030755;28;20143;-60
2023/09/26 09:41:27;;;;;;;271.40;251.02;;;;;;;;;;5030976;28;20544;-60
2023/09/26 09:43:52;;;;;;;262.27;235.43;;;;;;;;;;5028831;28;20033;-58
2023/09/26 09:46:19;;;;;;;248.37;228.47;;;;;;;;;;5011620;28;20036;-60
2023/09/26 09:48:45;;;;;;;228.25;210.38;;;;;;;;;;5022693;28;20040;-61
2023/09/26 09:51:10;;;;;;;;;;;;;;;;;;5031248;28;20104;-59
2023/09/26 09:53:36;;;;;;;409.73;319.60;;;;;;;;;;5014127;28;19997;-59
2023/09/26 09:56:04;;;;;;;208.90;193.73;;;;;;;;;;4992003;28;20080;-60
2023/09/26 09:58:30;;;;;;;212.05;192.38;;;;;;;;;;5002564;28;20014;-60
2023/09/26 10:00:56;;;;;;;220.60;200.82;;;;;;;;;;5022207;28;20017;-59
2023/09/26 10:03:22;;;;;;;219.10;203.10;;;;;;;;;;5023957;28;20076;-59
2023/09/26 10:05:48;;;;;;;215.47;197.30;;;;;;;;;;5030212;28;20053;-60
2023/09/26 10:08:13;;;;;;;206.25;189.85;;;;;;;;;;5033739;28;20425;-60
2023/09/26 10:10:39;;;;;;;204.02;187.70;;;;;;;;;;5034743;28;20017;-58
2023/09/26 10:13:06;;;;;;;249.98;232.75;;;;;;;;;;5027113;28;20021;-59
2023/09/26 10:15:33;;;;;;;164.95;153.52;;;;;;;;;;5027007;28;20060;-59
2023/09/26 10:18:01;;;;;;;210.60;193.80;;;;;;;;;;5009693;28;20030;-60
2023/09/26 10:20:27;;;;;;;170.85;158.40;;;;;;;;;;5026102;28;20126;-61
2023/09/26 10:22:52;;;;;;;;;;;;;;;;;;5021761;28;20021;-59
2023/09/26 10:25:23;;;;;;;252.60;227.73;;;;;;;;;;5018038;28;19909;-58
2023/09/26 10:27:50;;;;;;;211.07;192.20;;;;;;;;;;5026409;28;20068;-57
2023/09/26 10:30:17;;;;;;;207.88;189.20;;;;;;;;;;5033882;28;20434;-59
2023/09/26 10:32:42;;;;;;;195.55;176.10;;;;;;;;;;5027136;28;20029;-60
2023/09/26 10:35:13;;;;;;;308.48;278.10;;;;;;;;;;5022049;28;20057;-60
2023/09/26 10:37:45;;;;;;;203.77;188.75;;;;;;;;;;5029784;28;20028;-59
2023/09/26 10:40:11;;;;;;;220.82;204.02;;;;;;;;;;5033666;28;20021;-58
2023/09/26 10:42:40;;;;;;;296.17;271.60;;;;;;;;;;5034409;28;20083;-60
2023/09/26 10:45:06;;;;;;;270.17;247.68;;;;;;;;;;5032794;28;20017;-59
2023/09/26 10:47:36;;;;;;;244.93;224.93;;;;;;;;;;5028670;28;20029;-60
2023/09/26 10:50:03;;;;;;;278.08;250.25;;;;;;;;;;5023127;28;20037;-59
2023/09/26 10:52:29;;;;;;;217.10;200.75;;;;;;;;;;5034656;28;20074;-59
2023/09/26 10:54:55;;;;;;;212.95;195.32;;;;;;;;;;5034628;28;20074;-58
2023/09/26 10:57:23;;;;;;;358.65;327.95;;;;;;;;;;5014808;28;20041;-60
2023/09/26 10:59:49;;;;;;;199.45;183.40;;;;;;;;;;5016010;28;20558;-58
2023/09/26 11:02:14;;;;;;;387.08;351.02;;;;;;;;;;5015262;28;20030;-60
2023/09/26 11:04:39;;;;;;;293.73;267.57;;;;;;;;;;5018372;28;20088;-59
2023/09/26 11:07:05;;;;;;;269.38;246.82;;;;;;;;;;5014124;28;20653;-60
2023/09/26 11:09:31;;;;;;;263.15;241.55;;;;;;;;;;5011001;28;20435;-60
2023/09/26 11:11:56;;;;;;;268.35;247.75;;;;;;;;;;5021679;28;20053;-60
2023/09/26 11:14:22;;;;;;;297.37;273.27;;;;;;;;;;5029256;28;20120;-59
2023/09/26 11:16:47;;;;;;;264.00;241.23;;;;;;;;;;5022134;28;20560;-59
2023/09/26 11:19:12;;;;;;;289.47;267.67;;;;;;;;;;5018741;28;20018;-59
2023/09/26 11:21:38;;;;;;;284.13;261.37;;;;;;;;;;5015197;28;20359;-59
2023/09/26 11:24:22;;;;;;;314.45;290.55;;;;;;;;;;5006575;28;20120;-58
2023/09/26 11:26:51;;;;;;;374.92;344.63;;;;;;;;;;5014787;28;20592;-58
2023/09/26 11:29:17;;;;;;;376.33;342.85;;;;;;;;;;5014959;28;20014;-60
2023/09/26 11:31:43;;;;;;;311.75;281.83;;;;;;;;;;5017451;28;20108;-60
2023/09/26 11:34:09;;;;;;;308.73;282.88;;;;;;;;;;5014307;28;20050;-58
2023/09/26 11:36:34;;;;;;;250.82;231.23;;;;;;;;;;5015347;28;20069;-59
2023/09/26 11:38:59;;;;;;;276.53;257.10;;;;;;;;;;5011504;28;20557;-59
2023/09/26 11:41:25;;;;;;;259.48;234.07;;;;;;;;;;5013218;28;20068;-59
2023/09/26 11:43:52;;;;;;;274.63;252.00;;;;;;;;;;5013022;28;20049;-59
2023/09/26 11:46:17;;;;;;;414.90;372.27;;;;;;;;;;5013150;28;20013;-60
2023/09/26 11:48:43;;;;;;;418.83;386.77;;;;;;;;;;5012690;28;20037;-58
2023/09/26 11:51:08;;;;;;;385.70;355.83;;;;;;;;;;5006526;28;20018;-60
2023/09/26 11:53:33;;;;;;;323.37;299.13;;;;;;;;;;5013317;28;20049;-61
2023/09/26 11:55:58;;;;;;;227.60;208.17;;;;;;;;;;5012805;28;20026;-59
2023/09/26 11:58:24;;;;;;;282.53;260.03;;;;;;;;;;5012730;28;20014;-59
2023/09/26 12:00:49;;;;;;;230.03;211.80;;;;;;;;;;5000510;28;20049;-60
2023/09/26 12:03:14;;;;;;;330.67;305.50;;;;;;;;;;5024914;28;20034;-58
2023/09/26 12:05:39;;;;;;;265.33;245.13;;;;;;;;;;5020388;28;20028;-61
2023/09/26 12:08:04;;;;;;;263.43;244.70;;;;;;;;;;5024870;28;20036;-60
2023/09/26 12:10:29;;;;;;;272.23;249.10;;;;;;;;;;5020721;28;20022;-60
2023/09/26 12:12:56;;;;;;;255.53;236.90;;;;;;;;;;5015335;28;20029;-60
2023/09/26 12:15:22;;;;;;;338.15;313.65;;;;;;;;;;5024973;28;20032;-60
2023/09/26 12:17:47;;;;;;;220.85;205.55;;;;;;;;;;5024153;28;20033;-60
2023/09/26 12:20:16;;;;;;;246.75;225.77;;;;;;;;;;5021247;28;20461;-61
2023/09/26 12:22:42;;;;;;;280.50;259.15;;;;;;;;;;5022164;28;20052;-60
2023/09/26 12:25:07;;;;;;;320.30;295.33;;;;;;;;;;5022924;28;20045;-59
2023/09/26 12:27:33;;;;;;;403.13;368.70;;;;;;;;;;5032281;28;20421;-60
2023/09/26 12:29:59;;;;;;;265.90;245.63;;;;;;;;;;5031466;28;20017;-59
2023/09/26 12:32:24;;;;;;;316.92;290.75;;;;;;;;;;5020817;28;20044;-59
2023/09/26 12:34:49;;;;;;;247.13;227.03;;;;;;;;;;5016178;28;20029;-60
2023/09/26 12:37:14;;;;;;;429.43;385.07;;;;;;;;;;5012128;28;20493;-59
2023/09/26 12:39:39;;;;;;;222.05;201.43;;;;;;;;;;5011496;28;20018;-60
2023/09/26 12:42:04;;;;;;;251.13;231.53;;;;;;;;;;5012137;28;20041;-62
2023/09/26 12:44:34;;;;;;;349.57;316.23;;;;;;;;;;5011716;28;20033;-59
2023/09/26 12:46:59;;;;;;;302.50;275.00;;;;;;;;;;5011609;28;20118;-61
2023/09/26 12:49:24;;;;;;;300.23;278.40;;;;;;;;;;5011268;28;20049;-57
2023/09/26 12:51:50;;;;;;;266.30;246.50;;;;;;;;;;5011510;28;20557;-59
2023/09/26 12:54:15;;;;;;;449.58;411.58;;;;;;;;;;5002580;28;20100;-59
2023/09/26 12:56:41;;;;;;;310.37;286.80;;;;;;;;;;5011858;28;20405;-58
2023/09/26 12:59:06;;;;;;;326.13;300.87;;;;;;;;;;5011080;28;20018;-59
2023/09/26 13:01:31;;;;;;;267.92;247.60;;;;;;;;;;5011793;28;20014;-58
2023/09/26 13:03:56;;;;;;;277.00;256.98;;;;;;;;;;5011574;28;20599;-59
2023/09/26 13:06:22;;;;;;;343.57;312.90;;;;;;;;;;5011778;28;20536;-60
2023/09/26 13:08:47;;;;;;;323.48;299.38;;;;;;;;;;5011347;28;20033;-59
2023/09/26 13:11:12;;;;;;;;;;;;;;;;;;5011530;28;20432;-59
2023/09/26 13:13:37;;;;;;;271.00;251.00;;;;;;;;;;5011850;28;19955;-59
2023/09/26 13:16:04;;;;;;;350.53;317.93;;;;;;;;;;5011482;28;20548;-58
2023/09/26 13:18:30;;;;;;;351.52;326.23;;;;;;;;;;5004703;28;20374;-59
2023/09/26 13:20:55;;;;;;;249.68;232.50;;;;;;;;;;5010424;28;20025;-61
2023/09/26 13:23:21;;;;;;;224.83;206.37;;;;;;;;;;5005220;28;20034;-60
2023/09/26 13:25:46;;;;;;;229.70;212.90;;;;;;;;;;5011179;28;20057;-60
2023/09/26 13:28:11;;;;;;;252.33;232.63;;;;;;;;;;5010992;28;20021;-60
2023/09/26 13:30:36;;;;;;;;;;;;;;;;;;5005895;28;20071;-58
2023/09/26 13:33:01;;;;;;;336.55;311.92;;;;;;;;;;5009386;28;19906;-59
2023/09/26 13:35:28;;;;;;;244.37;226.27;;;;;;;;;;5011156;28;20388;-59
2023/09/26 13:37:53;;;;;;;387.33;358.00;;;;;;;;;;5000409;28;20726;-59
2023/09/26 13:40:18;;;;;;;292.40;269.38;;;;;;;;;;5007460;28;20064;-58
2023/09/26 13:42:43;;;;;;;270.93;248.63;;;;;;;;;;5009048;28;20104;-59
2023/09/26 13:45:09;;;;;;;267.00;243.07;;;;;;;;;;5013269;28;20396;-59
2023/09/26 13:47:34;;;;;;;;;;;;;;;;;;5019103;28;20101;-59
2023/09/26 13:49:59;;;;;;;248.82;229.13;;;;;;;;;;5010450;28;19924;-59
2023/09/26 13:52:24;;;;;;;;;;;;;;;;;;5005950;28;20402;-58
2023/09/26 13:54:52;;;;;;;233.82;216.70;;;;;;;;;;5007091;28;20384;-59
2023/09/26 13:57:17;;;;;;;279.58;257.52;;;;;;;;;;4996242;28;20444;-60
2023/09/26 13:59:44;;;;;;;318.42;293.52;;;;;;;;;;5005968;28;20112;-59